Time;durP1;ratioP1;P1;durP2;ratioP2;P2;SDS_P1;SDS_P2;PMS_P1;PMS_P2;Temp;Humidity;BMP_temperature;BMP_pressure;BME280_temperature;BME280_humidity;BME280_pressure;Samples;Min_cycle;Max_cycle;Signal;HPM_P1;HPM_P2
2021/01/05 00:01:30;;;;;;;2.33;1.40;;;7.40;99.90;;;;;;6106576;23;20182;-95
2021/01/05 00:04:01;;;;;;;5.37;1.67;;;7.40;99.90;;;;;;6106397;23;20198;-96
2021/01/05 00:06:32;;;;;;;9.23;1.80;;;7.50;99.90;;;;;;6084097;23;20182;-96
2021/01/05 00:09:06;;;;;;;3.73;1.43;;;7.50;99.90;;;;;;6106158;23;20183;-96
2021/01/05 00:11:57;;;;;;;9.60;2.10;;;7.50;99.90;;;;;;6105649;23;20182;-96
2021/01/05 00:14:28;;;;;;;8.23;1.87;;;7.40;99.90;;;;;;6109085;23;20210;-93
2021/01/05 00:17:01;;;;;;;9.50;2.23;;;7.40;99.90;;;;;;6108587;23;20187;-95
2021/01/05 00:19:33;;;;;;;7.20;2.10;;;7.40;99.90;;;;;;6106102;23;20180;-94
2021/01/05 00:22:04;;;;;;;6.23;1.73;;;7.40;99.90;;;;;;6106555;23;20179;-95
2021/01/05 00:24:35;;;;;;;7.43;1.50;;;7.30;99.90;;;;;;6110639;23;20194;-96
2021/01/05 00:27:10;;;;;;;7.00;1.77;;;7.30;99.90;;;;;;6110261;23;20251;-96
2021/01/05 00:29:41;;;;;;;8.03;1.73;;;7.30;99.90;;;;;;6106841;23;20235;-95
2021/01/05 00:32:16;;;;;;;10.07;1.73;;;7.30;99.90;;;;;;6107726;23;20348;-92
2021/01/05 00:34:49;;;;;;;13.17;2.47;;;7.20;99.90;;;;;;6109149;23;20189;-94
2021/01/05 00:37:20;;;;;;;9.63;1.50;;;7.20;99.90;;;;;;6112146;23;20194;-96
2021/01/05 00:39:51;;;;;;;11.23;2.37;;;7.20;99.90;;;;;;6105222;23;20179;-95
2021/01/05 00:42:24;;;;;;;8.67;1.80;;;7.20;99.90;;;;;;6104786;23;20227;-95
2021/01/05 00:44:55;;;;;;;6.20;1.73;;;7.20;99.90;;;;;;6104905;23;20303;-94
2021/01/05 00:47:25;;;;;;;6.10;1.83;;;7.20;99.90;;;;;;6107135;23;20179;-95
2021/01/05 00:49:56;;;;;;;13.97;1.90;;;7.20;99.90;;;;;;6080294;23;20187;-94
2021/01/05 00:52:27;;;;;;;6.43;1.57;;;7.20;99.90;;;;;;6106182;23;20183;-93
2021/01/05 00:55:13;;;;;;;;;;;;;;;;;;;;;
2021/01/05 00:58:08;;;;;;;;;;;;;;;;;;;;;
2021/01/05 01:00:40;;;;;;;12.33;2.20;;;7.10;99.90;;;;;;6139472;23;20182;-94
2021/01/05 01:03:11;;;;;;;13.67;2.53;;;7.20;99.90;;;;;;6149907;23;20261;-91
2021/01/05 01:05:43;;;;;;;8.97;2.13;;;7.20;99.90;;;;;;6149039;23;20175;-96
2021/01/05 01:10:52;;;;;;;4.90;1.60;;;7.20;99.90;;;;;;6122667;23;20236;-96
2021/01/05 01:18:42;;;;;;;9.47;2.30;;;7.20;99.90;;;;;;6105355;23;20249;-96
2021/01/05 01:21:17;;;;;;;10.33;2.00;;;7.20;99.90;;;;;;6112842;23;20225;-94
2021/01/05 01:23:49;;;;;;;8.37;2.00;;;7.10;99.90;;;;;;6139846;23;20430;-93
2021/01/05 01:26:22;;;;;;;8.23;1.70;;;7.10;99.90;;;;;;6141359;23;20194;-96
2021/01/05 01:31:43;;;;;;;11.47;2.50;;;7.10;99.90;;;;;;6145002;23;20201;-96
2021/01/05 01:34:19;;;;;;;10.97;2.40;;;7.10;99.90;;;;;;6120036;23;20209;-96
2021/01/05 01:36:59;;;;;;;10.67;1.70;;;7.10;99.90;;;;;;6116296;23;20171;-92
2021/01/05 01:39:31;;;;;;;4.57;1.50;;;7.10;99.90;;;;;;6114868;23;20190;-94
2021/01/05 01:42:04;;;;;;;10.00;1.80;;;7.10;99.90;;;;;;6114672;23;20179;-96
2021/01/05 01:47:14;;;;;;;6.10;1.90;;;7.10;99.90;;;;;;6149505;23;20246;-94
2021/01/05 01:49:49;;;;;;;12.40;2.20;;;7.10;99.90;;;;;;6149808;23;20162;-92
2021/01/05 01:52:32;;;;;;;10.97;2.20;;;7.00;99.90;;;;;;6150941;23;20158;-91
2021/01/05 01:55:21;;;;;;;6.73;2.10;;;7.00;99.90;;;;;;6150945;23;20202;-96
2021/01/05 02:00:44;;;;;;;7.43;1.90;;;7.00;99.90;;;;;;6130046;23;20225;-94
2021/01/05 02:03:34;;;;;;;7.30;1.60;;;7.10;99.90;;;;;;6137290;23;20229;-94
2021/01/05 02:06:18;;;;;;;8.17;1.87;;;7.10;99.90;;;;;;6134420;23;20273;-95
2021/01/05 02:09:01;;;;;;;11.37;2.83;;;7.10;99.90;;;;;;6110787;23;20197;-94
2021/01/05 02:11:54;;;;;;;14.87;2.37;;;7.10;99.90;;;;;;6133809;23;20233;-95
2021/01/05 02:14:46;;;;;;;8.53;1.77;;;7.00;99.90;;;;;;6133332;23;20178;-95
2021/01/05 02:17:52;;;;;;;8.53;1.97;;;7.10;99.90;;;;;;6134659;23;20238;-94
2021/01/05 02:20:26;;;;;;;10.77;1.60;;;7.10;99.90;;;;;;6137870;23;20197;-95
2021/01/05 02:23:16;;;;;;;7.73;1.73;;;7.10;99.90;;;;;;6137292;23;20253;-96
2021/01/05 02:25:56;;;;;;;6.13;1.27;;;7.10;99.90;;;;;;6134765;23;20170;-95
2021/01/05 02:28:36;;;;;;;8.03;1.80;;;7.10;99.90;;;;;;6105692;23;20654;-95
2021/01/05 02:31:23;;;;;;;9.87;2.23;;;7.10;99.90;;;;;;6103823;23;20238;-96
2021/01/05 02:34:03;;;;;;;3.80;1.80;;;7.20;99.90;;;;;;6080614;23;20187;-96
2021/01/05 02:37:08;;;;;;;7.67;1.57;;;7.20;99.90;;;;;;6104167;23;20184;-96
2021/01/05 02:40:12;;;;;;;4.63;1.33;;;7.20;99.90;;;;;;6104810;23;20235;-96
2021/01/05 02:43:12;;;;;;;9.20;2.63;;;7.20;99.90;;;;;;6105410;23;20183;-96
2021/01/05 02:45:50;;;;;;;6.63;1.60;;;7.20;99.90;;;;;;6099939;23;20195;-95
2021/01/05 02:48:42;;;;;;;8.03;1.53;;;7.20;99.90;;;;;;6086856;23;20196;-96
2021/01/05 02:51:39;;;;;;;8.33;1.50;;;7.10;99.90;;;;;;6105730;23;20251;-94
2021/01/05 02:54:51;;;;;;;7.63;1.40;;;7.10;99.90;;;;;;6078488;23;20167;-95
2021/01/05 02:57:41;;;;;;;2.37;1.20;;;7.00;99.90;;;;;;6100939;23;20179;-95
2021/01/05 03:00:51;;;;;;;7.27;1.40;;;7.00;99.90;;;;;;6100225;23;20884;-95
2021/01/05 03:03:41;;;;;;;6.10;1.60;;;7.00;99.90;;;;;;6103854;23;20194;-96
2021/01/05 03:06:29;;;;;;;6.10;1.37;;;6.90;99.90;;;;;;6100610;23;20179;-92
2021/01/05 03:09:35;;;;;;;4.33;1.23;;;6.80;99.90;;;;;;6101775;23;20183;-96
2021/01/05 03:12:18;;;;;;;4.00;1.10;;;6.80;99.90;;;;;;6080040;23;20265;-96
2021/01/05 03:15:11;;;;;;;1.40;0.60;;;6.80;99.90;;;;;;6108700;23;20167;-96
2021/01/05 03:17:50;;;;;;;5.20;1.20;;;6.80;99.90;;;;;;6108887;23;20180;-94
2021/01/05 03:20:28;;;;;;;2.60;0.70;;;6.70;99.90;;;;;;6104666;23;20226;-95
2021/01/05 03:23:01;;;;;;;2.50;1.07;;;6.70;99.90;;;;;;6110400;23;20197;-96
2021/01/05 03:25:35;;;;;;;4.43;1.07;;;6.70;99.90;;;;;;6120805;23;20171;-96
2021/01/05 03:28:12;;;;;;;2.80;0.93;;;6.60;99.90;;;;;;6120538;23;20222;-96
2021/01/05 03:30:48;;;;;;;4.20;1.10;;;6.60;99.90;;;;;;6116196;23;20725;-95
2021/01/05 03:33:23;;;;;;;1.50;0.60;;;6.60;99.90;;;;;;6112305;23;20189;-95
2021/01/05 03:35:53;;;;;;;4.93;1.10;;;6.50;99.90;;;;;;6120500;23;20171;-95
2021/01/05 03:38:24;;;;;;;2.80;0.70;;;6.50;99.90;;;;;;6113621;23;20224;-96
2021/01/05 03:40:55;;;;;;;3.73;0.70;;;6.40;99.90;;;;;;6102084;23;20236;-95
2021/01/05 03:43:30;;;;;;;2.60;0.73;;;6.30;99.90;;;;;;6102212;23;20190;-95
2021/01/05 03:46:08;;;;;;;2.90;1.00;;;6.30;99.90;;;;;;6107564;23;20227;-95
2021/01/05 03:48:47;;;;;;;5.67;0.90;;;6.20;99.90;;;;;;6106850;23;20171;-93
2021/01/05 03:51:21;;;;;;;2.77;0.80;;;6.20;99.90;;;;;;6100373;23;20179;-95
2021/01/05 03:53:51;;;;;;;2.43;0.87;;;6.20;99.90;;;;;;6103159;23;20198;-95
2021/01/05 03:56:24;;;;;;;4.03;0.90;;;6.20;99.90;;;;;;6081695;23;20183;-93
2021/01/05 03:58:59;;;;;;;2.47;0.73;;;6.20;99.90;;;;;;6113719;23;20179;-95
2021/01/05 04:01:30;;;;;;;2.23;0.90;;;6.10;99.90;;;;;;6113518;23;20182;-94
2021/01/05 04:04:15;;;;;;;3.87;0.70;;;6.10;99.90;;;;;;6114914;23;20206;-96
2021/01/05 04:07:03;;;;;;;4.80;1.10;;;6.10;99.90;;;;;;6117890;23;20183;-96
2021/01/05 04:09:42;;;;;;;2.00;0.90;;;6.10;99.90;;;;;;6117443;23;20227;-95
2021/01/05 04:12:18;;;;;;;2.40;0.70;;;6.10;99.90;;;;;;6091796;23;20278;-96
2021/01/05 04:14:54;;;;;;;1.73;0.70;;;6.10;99.90;;;;;;6116478;23;20190;-96
2021/01/05 04:17:29;;;;;;;2.50;0.83;;;6.10;99.90;;;;;;6119190;23;20159;-96
2021/01/05 04:20:03;;;;;;;1.57;0.80;;;6.00;99.90;;;;;;6092567;23;20227;-96
2021/01/05 04:22:37;;;;;;;1.37;0.80;;;6.00;99.90;;;;;;6116349;23;20183;-96
2021/01/05 04:25:11;;;;;;;3.73;0.80;;;6.00;99.90;;;;;;6091420;23;20290;-94
2021/01/05 04:30:47;;;;;;;2.73;0.90;;;6.20;99.90;;;;;;6117237;23;20175;-96
2021/01/05 04:33:20;;;;;;;3.43;0.80;;;6.20;99.90;;;;;;6117659;23;20202;-96
2021/01/05 04:35:56;;;;;;;3.50;0.90;;;6.20;99.90;;;;;;6091193;23;20183;-96
2021/01/05 04:38:29;;;;;;;5.43;1.00;;;6.20;99.90;;;;;;6116804;23;20175;-95
2021/01/05 04:41:03;;;;;;;3.50;1.10;;;6.20;99.90;;;;;;6092205;23;20171;-95
2021/01/05 05:37:47;;;;;;;5.10;2.00;;;6.40;99.90;;;;;;6100758;23;20703;-96
2021/01/05 05:40:33;;;;;;;6.03;1.47;;;6.50;99.90;;;;;;6143509;23;20178;-96
2021/01/05 05:43:41;;;;;;;3.80;1.40;;;6.50;99.90;;;;;;6118840;23;20562;-96
2021/01/05 05:46:17;;;;;;;2.87;1.30;;;6.50;99.90;;;;;;6146292;23;20205;-96
2021/01/05 05:48:54;;;;;;;2.33;1.07;;;6.50;99.90;;;;;;6149324;23;20178;-96
2021/01/05 05:51:30;;;;;;;5.43;1.27;;;6.50;99.90;;;;;;6151349;23;20213;-96
2021/01/05 05:54:12;;;;;;;5.20;1.63;;;6.50;99.90;;;;;;6151623;23;20198;-96
2021/01/05 05:59:38;;;;;;;6.27;1.40;;;6.40;99.90;;;;;;6143176;23;20214;-96
2021/01/05 06:02:12;;;;;;;4.97;1.67;;;6.50;99.90;;;;;;6147994;23;20170;-96
2021/01/05 06:04:43;;;;;;;4.63;1.37;;;6.50;99.90;;;;;;6149645;23;20166;-96
2021/01/05 06:28:45;;;;;;;7.83;1.80;;;6.60;99.90;;;;;;6101328;23;20224;-96
2021/01/05 06:31:17;;;;;;;4.93;1.43;;;6.60;99.90;;;;;;6146378;23;20198;-96
2021/01/05 06:33:48;;;;;;;4.77;1.47;;;6.60;99.90;;;;;;6119998;23;20209;-96
2021/01/05 07:41:01;;;;;;;3.53;1.20;;;6.70;99.90;;;;;;6142601;23;20198;-96
2021/01/05 07:43:35;;;;;;;4.67;1.17;;;6.60;99.90;;;;;;6152062;23;20217;-95
2021/01/05 07:46:07;;;;;;;7.13;1.73;;;6.60;99.90;;;;;;6152154;23;20198;-96
2021/01/05 07:48:42;;;;;;;5.30;1.40;;;6.60;99.90;;;;;;6128082;23;20167;-96
2021/01/05 07:51:13;;;;;;;5.63;1.30;;;6.60;99.90;;;;;;6127128;23;20214;-96
2021/01/05 07:53:45;;;;;;;7.73;1.33;;;6.60;99.90;;;;;;6148975;23;20194;-96
2021/01/05 07:56:20;;;;;;;4.57;1.53;;;6.60;99.90;;;;;;6148196;23;20178;-96
2021/01/05 07:58:58;;;;;;;3.40;1.00;;;6.60;99.90;;;;;;6148353;23;20215;-96
2021/01/05 08:01:33;;;;;;;8.87;1.43;;;6.60;99.90;;;;;;6148557;23;20186;-96
2021/01/05 08:04:07;;;;;;;5.40;1.43;;;6.70;99.90;;;;;;6126750;23;20201;-96
2021/01/05 08:06:43;;;;;;;6.93;1.43;;;6.70;99.90;;;;;;6128282;23;20169;-96
2021/01/05 08:41:33;;;;;;;3.20;0.80;;;6.60;99.90;;;;;;6131252;23;20237;-96
2021/01/05 08:44:07;;;;;;;6.70;1.60;;;6.60;99.90;;;;;;6146975;23;20186;-96
2021/01/05 08:46:38;;;;;;;5.67;1.40;;;6.60;99.90;;;;;;6122050;23;20186;-96
2021/01/05 08:49:09;;;;;;;4.03;0.83;;;6.60;99.90;;;;;;6121217;23;20174;-96
2021/01/05 08:51:40;;;;;;;7.70;1.43;;;6.60;99.90;;;;;;6148213;23;20170;-96
2021/01/05 08:54:19;;;;;;;6.63;1.27;;;6.60;99.90;;;;;;6147488;23;20204;-96
2021/01/05 08:59:34;;;;;;;5.83;1.47;;;6.60;99.90;;;;;;6136789;23;20258;-96
2021/01/05 09:02:06;;;;;;;4.03;1.50;;;6.60;99.90;;;;;;6149768;23;20230;-96
2021/01/05 09:04:36;;;;;;;3.53;1.13;;;6.50;99.90;;;;;;6126309;23;20166;-96
2021/01/05 09:07:09;;;;;;;3.27;1.00;;;6.50;99.90;;;;;;6149397;23;20182;-96
2021/01/05 09:09:44;;;;;;;2.80;0.73;;;6.40;99.90;;;;;;6148376;23;20222;-96
2021/01/05 09:41:58;;;;;;;4.50;1.00;;;6.30;99.90;;;;;;6082182;23;20233;-97
2021/01/05 10:11:31;;;;;;;2.60;0.67;;;6.30;99.90;;;;;;6089632;23;20201;-95
2021/01/05 10:14:02;;;;;;;4.97;1.10;;;6.40;99.90;;;;;;6105411;23;20194;-96
2021/01/05 10:16:33;;;;;;;2.03;0.53;;;6.40;99.90;;;;;;6152524;23;20198;-96
2021/01/05 11:07:37;;;;;;;3.67;0.70;;;5.60;99.90;;;;;;6132314;23;20218;-93
2021/01/05 11:10:12;;;;;;;1.17;0.53;;;5.60;99.90;;;;;;6151320;23;20163;-96
2021/01/05 11:12:49;;;;;;;3.13;0.60;;;5.60;99.90;;;;;;6151571;23;20163;-96
2021/01/05 11:15:21;;;;;;;2.47;0.47;;;5.60;99.90;;;;;;6152524;23;20217;-96
2021/01/05 11:17:53;;;;;;;2.33;0.40;;;5.60;99.90;;;;;;6126260;23;20173;-96
2021/01/05 11:20:26;;;;;;;0.57;0.50;;;5.60;99.90;;;;;;6126146;23;20178;-96
2021/01/05 11:22:59;;;;;;;2.60;0.60;;;5.60;99.90;;;;;;6151477;23;20170;-96
2021/01/05 12:03:28;;;;;;;2.63;0.40;;;5.90;99.90;;;;;;6179738;23;20211;-96
2021/01/05 13:11:47;;;;;;;2.07;0.50;;;6.20;99.90;;;;;;6130096;23;20230;-96
2021/01/05 13:14:22;;;;;;;0.93;0.30;;;6.20;99.90;;;;;;6149669;23;20194;-95
2021/01/05 13:16:54;;;;;;;2.03;0.80;;;6.30;99.90;;;;;;6150377;23;20204;-95
2021/01/05 13:38:04;;;;;;;3.00;0.57;;;5.90;99.90;;;;;;6153595;23;20253;-96
2021/01/05 13:40:36;;;;;;;3.03;0.50;;;5.80;99.90;;;;;;6128608;23;20154;-95
2021/01/05 13:43:06;;;;;;;2.73;0.57;;;5.80;99.90;;;;;;6153433;23;20210;-96
2021/01/05 13:45:39;;;;;;;1.37;0.57;;;5.70;99.90;;;;;;6153390;23;20178;-96
2021/01/05 14:07:01;;;;;;;1.40;0.80;;;5.70;99.90;;;;;;6104792;23;20221;-95
2021/01/05 14:09:36;;;;;;;3.60;0.30;;;5.70;99.90;;;;;;6152080;23;20213;-96
2021/01/05 14:31:14;;;;;;;2.27;0.50;;;5.80;99.90;;;;;;6147790;23;20198;-95
2021/01/05 14:33:45;;;;;;;1.13;0.40;;;5.80;99.90;;;;;;6121545;23;20213;-96
2021/01/05 14:36:22;;;;;;;3.60;0.43;;;5.90;99.90;;;;;;6121604;23;20211;-96
2021/01/05 16:10:21;;;;;;;1.53;0.20;;;7.10;99.90;;;;;;6114516;23;20212;-96
2021/01/05 17:22:59;;;;;;;1.23;0.30;;;7.10;99.90;;;;;;6180881;23;20252;-96
2021/01/05 17:25:37;;;;;;;0.63;0.13;;;7.10;99.90;;;;;;6158873;23;20215;-96
2021/01/05 17:28:08;;;;;;;0.50;0.20;;;7.10;99.90;;;;;;6148824;23;20172;-96
2021/01/05 17:30:40;;;;;;;0.67;0.40;;;7.20;99.90;;;;;;6173019;23;20169;-96
2021/01/05 17:36:06;;;;;;;1.40;0.30;;;7.20;99.90;;;;;;6171345;23;20178;-96
2021/01/05 17:38:41;;;;;;;0.20;0.20;;;7.30;99.90;;;;;;6172034;23;20187;-94
2021/01/05 17:41:15;;;;;;;0.67;0.30;;;7.40;99.90;;;;;;6172297;23;20178;-94
2021/01/05 17:43:48;;;;;;;0.87;0.30;;;7.30;99.90;;;;;;6173595;23;20170;-95
2021/01/05 17:46:19;;;;;;;0.80;0.47;;;7.40;99.90;;;;;;6172661;23;20209;-91
2021/01/05 17:48:51;;;;;;;2.47;0.30;;;7.40;99.90;;;;;;6171392;23;20178;-95
2021/01/05 17:51:25;;;;;;;0.20;0.20;;;7.40;99.90;;;;;;6164759;23;20180;-94
2021/01/05 17:54:00;;;;;;;0.87;0.30;;;7.40;99.90;;;;;;6174880;23;20235;-96
2021/01/05 17:56:38;;;;;;;0.30;0.30;;;7.40;99.90;;;;;;6172464;23;20260;-95
2021/01/05 17:59:08;;;;;;;1.63;0.40;;;7.40;99.90;;;;;;6149523;23;20196;-96
2021/01/05 18:01:44;;;;;;;1.13;0.40;;;7.40;99.90;;;;;;6173013;23;20172;-96
2021/01/05 18:04:33;;;;;;;0.20;0.20;;;7.40;99.90;;;;;;6175104;23;20178;-96
2021/01/05 18:07:10;;;;;;;1.60;0.30;;;7.40;99.90;;;;;;6115116;23;20222;-96
2021/01/05 18:09:43;;;;;;;1.57;0.63;;;7.40;99.90;;;;;;6112874;23;20201;-96
2021/01/05 18:12:16;;;;;;;0.67;0.37;;;7.40;99.90;;;;;;6115736;23;20890;-96
2021/01/05 18:14:51;;;;;;;0.53;0.40;;;7.50;99.90;;;;;;6112317;23;20209;-96
2021/01/05 18:17:24;;;;;;;2.00;0.60;;;7.50;99.90;;;;;;6118041;23;20207;-96
2021/01/05 18:19:55;;;;;;;1.37;0.40;;;7.50;99.90;;;;;;6114491;23;20238;-96
2021/01/05 18:22:27;;;;;;;1.00;0.50;;;7.50;99.90;;;;;;6118936;23;20195;-96
2021/01/05 18:25:00;;;;;;;0.90;0.63;;;7.60;99.90;;;;;;6103238;23;20198;-96
2021/01/05 18:27:37;;;;;;;1.07;0.50;;;7.50;99.90;;;;;;6147147;23;20189;-96
2021/01/05 18:30:12;;;;;;;0.50;0.50;;;7.60;99.90;;;;;;6139715;23;20615;-94
2021/01/05 18:32:43;;;;;;;0.60;0.53;;;7.60;99.90;;;;;;6143376;23;20790;-96
2021/01/05 18:35:17;;;;;;;2.00;0.67;;;7.60;99.90;;;;;;6143189;23;20213;-96
2021/01/05 18:37:49;;;;;;;2.07;0.53;;;7.60;99.90;;;;;;6144363;23;20236;-96
2021/01/05 18:40:28;;;;;;;1.93;0.50;;;7.60;99.90;;;;;;6142653;23;20198;-96
2021/01/05 18:43:01;;;;;;;1.13;0.40;;;7.70;99.90;;;;;;6145810;23;20195;-96
2021/01/05 18:45:33;;;;;;;1.53;0.40;;;7.70;99.90;;;;;;6093832;23;20185;-96
2021/01/05 18:48:04;;;;;;;0.77;0.40;;;7.80;99.90;;;;;;6138249;23;20515;-96
2021/01/05 18:50:37;;;;;;;1.17;0.30;;;7.80;99.90;;;;;;6137759;23;20204;-96
2021/01/05 18:53:18;;;;;;;1.30;0.50;;;7.90;99.90;;;;;;6143547;23;20181;-96
2021/01/05 18:58:32;;;;;;;1.03;0.40;;;8.00;99.90;;;;;;6177062;23;20208;-96
2021/01/05 19:03:38;;;;;;;1.10;0.40;;;8.00;99.90;;;;;;6136126;23;20210;-96
2021/01/05 19:06:11;;;;;;;1.57;0.57;;;8.00;99.90;;;;;;6110895;23;20236;-96
2021/01/05 19:08:43;;;;;;;1.60;0.30;;;8.10;99.90;;;;;;6136151;23;20210;-96
2021/01/05 19:11:16;;;;;;;1.03;0.40;;;8.20;99.90;;;;;;6139614;23;20189;-96
2021/01/05 19:14:18;;;;;;;0.60;0.40;;;8.20;99.90;;;;;;6117921;23;20237;-96
2021/01/05 19:16:53;;;;;;;1.63;0.77;;;8.20;99.90;;;;;;6139881;23;20187;-96
2021/01/05 19:19:24;;;;;;;1.17;0.47;;;8.10;99.90;;;;;;6145614;23;20210;-96
2021/01/05 19:21:54;;;;;;;1.83;0.80;;;8.20;99.90;;;;;;6143855;23;20229;-96
2021/01/05 19:24:38;;;;;;;0.83;0.20;;;8.30;99.90;;;;;;6122107;23;20190;-96
2021/01/05 19:27:13;;;;;;;1.17;0.30;;;8.30;99.90;;;;;;6143760;23;20166;-95
2021/01/05 19:29:57;;;;;;;2.37;0.33;;;8.40;99.90;;;;;;6149858;23;20180;-95
2021/01/05 19:37:53;;;;;;;1.20;0.40;;;8.50;99.90;;;;;;6148537;23;20211;-96
2021/01/05 19:40:28;;;;;;;1.33;0.50;;;8.50;99.90;;;;;;6128139;23;20182;-96
2021/01/05 19:46:24;;;;;;;2.40;0.50;;;8.60;99.90;;;;;;6118721;23;20227;-96
2021/01/05 19:49:13;;;;;;;1.23;0.40;;;8.50;99.90;;;;;;6148506;23;20188;-96
2021/01/05 19:52:13;;;;;;;1.33;0.57;;;8.30;99.90;;;;;;6151323;23;20182;-96
2021/01/05 19:55:13;;;;;;;5.30;1.13;;;8.20;99.90;;;;;;6127228;23;20755;-95
2021/01/05 19:57:56;;;;;;;3.23;0.63;;;8.10;99.90;;;;;;6144957;23;20711;-96
2021/01/05 20:00:31;;;;;;;8.00;0.80;;;7.90;99.90;;;;;;6148966;23;20173;-96
2021/01/05 20:03:09;;;;;;;5.87;0.93;;;7.60;99.90;;;;;;6116185;23;20270;-95
2021/01/05 20:05:42;;;;;;;5.13;0.67;;;7.50;99.90;;;;;;6146577;23;20206;-95
2021/01/05 20:10:52;;;;;;;4.60;0.60;;;7.10;99.90;;;;;;6095468;23;20202;-94
2021/01/05 20:13:30;;;;;;;3.13;0.80;;;7.00;99.90;;;;;;6146793;23;20210;-96
2021/01/05 20:16:13;;;;;;;2.33;0.50;;;6.80;99.90;;;;;;6100501;23;20243;-96
2021/01/05 20:18:49;;;;;;;4.50;0.63;;;6.70;99.90;;;;;;6119366;23;20187;-96
2021/01/05 20:29:28;;;;;;;4.07;0.83;;;6.50;99.90;;;;;;6148433;23;20197;-95
2021/01/05 20:31:59;;;;;;;3.00;0.60;;;6.40;99.90;;;;;;6095869;23;20178;-96
2021/01/05 20:34:30;;;;;;;2.53;0.60;;;6.40;99.90;;;;;;6144121;23;20190;-96
2021/01/05 20:37:01;;;;;;;2.37;0.70;;;6.40;99.90;;;;;;6144638;23;20202;-95
2021/01/05 20:39:32;;;;;;;4.90;0.60;;;6.40;99.90;;;;;;6138619;23;20186;-95
2021/01/05 20:42:03;;;;;;;2.40;0.63;;;6.40;99.90;;;;;;6140127;23;20182;-96
2021/01/05 20:44:35;;;;;;;3.70;0.60;;;6.40;99.90;;;;;;6140181;23;20186;-96
2021/01/05 20:47:04;;;;;;;3.80;0.70;;;6.40;99.90;;;;;;6141065;23;20186;-96
2021/01/05 20:52:14;;;;;;;3.57;1.00;;;6.40;99.90;;;;;;6176849;23;20277;-96
2021/01/05 20:54:49;;;;;;;4.40;0.60;;;6.40;99.90;;;;;;6102760;23;20272;-94
2021/01/05 21:19:05;;;;;;;2.00;0.60;;;6.40;99.90;;;;;;6103910;23;20237;-96
2021/01/05 21:21:38;;;;;;;2.67;0.63;;;6.40;99.90;;;;;;6122538;23;20182;-96
2021/01/05 21:24:13;;;;;;;4.23;0.70;;;6.40;99.90;;;;;;6148765;23;20162;-96
2021/01/05 21:29:33;;;;;;;2.80;0.60;;;6.30;99.90;;;;;;6121957;23;20206;-96
2021/01/05 21:32:10;;;;;;;3.90;0.77;;;6.30;99.90;;;;;;6148347;23;20210;-96
2021/01/05 21:34:47;;;;;;;1.73;0.70;;;6.40;99.90;;;;;;6149384;23;20587;-96
2021/01/05 21:37:18;;;;;;;4.53;0.90;;;6.30;99.90;;;;;;6124912;23;20174;-96
2021/01/05 21:39:57;;;;;;;3.83;0.73;;;6.30;99.90;;;;;;6126782;23;20166;-96
2021/01/05 21:42:30;;;;;;;1.10;0.20;;;6.30;99.90;;;;;;6149157;23;20182;-96
2021/01/05 21:45:02;;;;;;;0.60;0.20;;;6.30;99.90;;;;;;6123478;23;20189;-94
2021/01/05 21:47:49;;;;;;;1.37;0.40;;;6.20;99.90;;;;;;6146798;23;20167;-95
2021/01/05 21:50:25;;;;;;;2.10;0.30;;;6.20;99.90;;;;;;6148098;23;20178;-96
2021/01/05 21:53:04;;;;;;;0.70;0.30;;;6.20;99.90;;;;;;6149120;23;20193;-96
2021/01/05 21:55:37;;;;;;;1.10;0.30;;;6.10;99.90;;;;;;6150374;23;20233;-95
2021/01/05 22:11:32;;;;;;;4.47;0.30;;;5.90;99.90;;;;;;6152238;23;20245;-96
2021/01/05 22:19:20;;;;;;;1.60;0.30;;;5.90;99.90;;;;;;6151239;23;20214;-94
2021/01/05 22:21:53;;;;;;;4.27;0.97;;;5.90;99.90;;;;;;6094811;23;20675;-88
2021/01/05 22:24:23;;;;;;;0.60;0.33;;;5.90;99.90;;;;;;6149585;23;20178;-94
2021/01/05 22:26:57;;;;;;;0.40;0.20;;;5.90;99.90;;;;;;6148252;23;20178;-96
2021/01/05 22:29:31;;;;;;;0.87;0.30;;;5.80;99.90;;;;;;6151119;23;20210;-96
2021/01/05 22:32:01;;;;;;;0.70;0.37;;;5.80;99.90;;;;;;6150724;23;20222;-94
2021/01/05 22:34:33;;;;;;;0.30;0.20;;;5.80;99.90;;;;;;6149149;23;20171;-96
2021/01/05 22:39:48;;;;;;;1.03;0.40;;;5.70;99.90;;;;;;6119100;23;20292;-95
2021/01/05 22:42:20;;;;;;;1.33;0.33;;;5.80;99.90;;;;;;6119846;23;20182;-95
2021/01/05 22:44:51;;;;;;;0.73;0.40;;;5.80;99.90;;;;;;6113315;23;20167;-92
2021/01/05 22:47:22;;;;;;;1.47;0.30;;;5.80;99.90;;;;;;6117118;23;20207;-96
2021/01/05 22:49:54;;;;;;;0.90;0.50;;;5.80;99.90;;;;;;6098517;23;20211;-96
2021/01/05 22:52:27;;;;;;;0.40;0.40;;;5.80;99.90;;;;;;6121490;23;20216;-96
2021/01/05 23:00:29;;;;;;;0.70;0.20;;;5.80;99.90;;;;;;6135255;23;20205;-96
2021/01/05 23:03:01;;;;;;;0.30;0.20;;;5.80;99.90;;;;;;6148538;23;20212;-96
2021/01/05 23:05:32;;;;;;;0.60;0.30;;;5.70;99.90;;;;;;6149862;23;20237;-95
2021/01/05 23:10:39;;;;;;;3.53;0.60;;;5.80;99.90;;;;;;6079121;23;20237;-90
2021/01/05 23:13:22;;;;;;;1.23;0.30;;;5.80;99.90;;;;;;6091240;23;20198;-92
2021/01/05 23:15:55;;;;;;;2.73;0.40;;;5.80;99.90;;;;;;6084956;23;20201;-89
2021/01/05 23:18:29;;;;;;;0.30;0.20;;;5.80;99.90;;;;;;6109409;23;20267;-93
2021/01/05 23:21:00;;;;;;;0.30;0.30;;;5.80;99.90;;;;;;6146370;23;20178;-92
2021/01/05 23:23:31;;;;;;;2.20;0.30;;;5.80;99.90;;;;;;6148327;23;20182;-93
2021/01/05 23:26:01;;;;;;;0.80;0.50;;;5.80;99.90;;;;;;6149133;23;20194;-94
2021/01/05 23:28:33;;;;;;;1.70;0.30;;;5.80;99.90;;;;;;6147918;23;20241;-92
2021/01/05 23:31:06;;;;;;;1.50;0.20;;;5.80;99.90;;;;;;6148260;23;20158;-95
2021/01/05 23:33:37;;;;;;;0.67;0.30;;;5.80;99.90;;;;;;6147088;23;20210;-94
2021/01/05 23:36:08;;;;;;;0.27;0.27;;;5.70;99.90;;;;;;6140202;23;20194;-92
2021/01/05 23:38:39;;;;;;;1.33;0.30;;;5.70;99.90;;;;;;6086735;23;20294;-91
2021/01/05 23:41:12;;;;;;;0.97;0.20;;;5.70;99.90;;;;;;6133364;23;20178;-95
2021/01/05 23:43:47;;;;;;;0.30;0.20;;;5.70;99.90;;;;;;6138021;23;20513;-95
2021/01/05 23:46:21;;;;;;;0.67;0.37;;;5.70;99.90;;;;;;6135969;23;20626;-93
2021/01/05 23:49:14;;;;;;;0.93;0.20;;;5.70;99.90;;;;;;6141565;23;20189;-94
2021/01/05 23:51:47;;;;;;;1.03;0.50;;;5.80;99.90;;;;;;6139234;23;20186;-96
2021/01/05 23:54:18;;;;;;;0.60;0.47;;;5.80;99.90;;;;;;6135397;23;20179;-93
2021/01/05 23:56:54;;;;;;;0.83;0.43;;;5.90;99.90;;;;;;6107167;23;20708;-94
2021/01/05 23:59:25;;;;;;;0.50;0.30;;;5.90;99.90;;;;;;6141549;23;20218;-95
